sensor_id;sensor_type;location;lat;lon;timestamp;temperature;humidity
13326;DHT22;6732;51.044;3.746;2022-12-08T00:02:07;5.90;99.90
13326;DHT22;6732;51.044;3.746;2022-12-08T00:04:33;5.80;99.90
13326;DHT22;6732;51.044;3.746;2022-12-08T00:07:18;5.80;99.90
13326;DHT22;6732;51.044;3.746;2022-12-08T00:10:03;5.80;99.90
13326;DHT22;6732;51.044;3.746;2022-12-08T00:12:29;5.80;99.90
13326;DHT22;6732;51.044;3.746;2022-12-08T00:14:55;5.80;99.90
13326;DHT22;6732;51.044;3.746;2022-12-08T00:17:21;5.80;99.90
13326;DHT22;6732;51.044;3.746;2022-12-08T00:19:47;5.80;99.90
13326;DHT22;6732;51.044;3.746;2022-12-08T00:22:14;5.80;99.90
13326;DHT22;6732;51.044;3.746;2022-12-08T00:24:41;5.80;99.90
13326;DHT22;6732;51.044;3.746;2022-12-08T00:27:10;5.80;99.90
13326;DHT22;6732;51.044;3.746;2022-12-08T00:29:37;5.80;99.90
13326;DHT22;6732;51.044;3.746;2022-12-08T00:32:04;5.70;99.90
13326;DHT22;6732;51.044;3.746;2022-12-08T00:34:31;5.70;99.90
13326;DHT22;6732;51.044;3.746;2022-12-08T00:36:57;5.70;99.90
13326;DHT22;6732;51.044;3.746;2022-12-08T00:39:23;5.70;99.90
13326;DHT22;6732;51.044;3.746;2022-12-08T00:41:49;5.70;99.90
13326;DHT22;6732;51.044;3.746;2022-12-08T00:44:34;5.70;99.90
13326;DHT22;6732;51.044;3.746;2022-12-08T00:47:00;5.70;99.90
13326;DHT22;6732;51.044;3.746;2022-12-08T00:49:26;5.70;99.90
13326;DHT22;6732;51.044;3.746;2022-12-08T00:51:52;5.70;99.90
13326;DHT22;6732;51.044;3.746;2022-12-08T00:54:18;5.70;99.90
13326;DHT22;6732;51.044;3.746;2022-12-08T00:56:44;5.70;99.90
13326;DHT22;6732;51.044;3.746;2022-12-08T00:59:11;5.70;99.90
13326;DHT22;6732;51.044;3.746;2022-12-08T01:01:37;5.70;99.90
13326;DHT22;6732;51.044;3.746;2022-12-08T01:04:04;5.70;99.90
13326;DHT22;6732;51.044;3.746;2022-12-08T01:06:30;5.80;99.90
13326;DHT22;6732;51.044;3.746;2022-12-08T01:08:56;5.80;99.90
13326;DHT22;6732;51.044;3.746;2022-12-08T01:11:22;5.80;99.90
13326;DHT22;6732;51.044;3.746;2022-12-08T01:13:48;5.80;99.90
13326;DHT22;6732;51.044;3.746;2022-12-08T01:16:22;5.80;99.90
13326;DHT22;6732;51.044;3.746;2022-12-08T01:18:48;5.80;99.90
13326;DHT22;6732;51.044;3.746;2022-12-08T01:21:14;5.80;99.90
13326;DHT22;6732;51.044;3.746;2022-12-08T01:23:40;5.80;99.90
13326;DHT22;6732;51.044;3.746;2022-12-08T01:26:08;5.80;99.90
13326;DHT22;6732;51.044;3.746;2022-12-08T01:28:35;5.80;99.90
13326;DHT22;6732;51.044;3.746;2022-12-08T01:31:02;5.80;99.90
13326;DHT22;6732;51.044;3.746;2022-12-08T01:33:28;5.80;99.90
13326;DHT22;6732;51.044;3.746;2022-12-08T01:35:54;5.80;99.90
13326;DHT22;6732;51.044;3.746;2022-12-08T01:38:21;5.80;99.90
13326;DHT22;6732;51.044;3.746;2022-12-08T01:40:48;5.80;99.90
13326;DHT22;6732;51.044;3.746;2022-12-08T01:43:19;5.90;99.90
13326;DHT22;6732;51.044;3.746;2022-12-08T01:45:46;5.80;99.90
13326;DHT22;6732;51.044;3.746;2022-12-08T01:48:23;5.80;99.90
13326;DHT22;6732;51.044;3.746;2022-12-08T01:50:50;5.80;99.90
13326;DHT22;6732;51.044;3.746;2022-12-08T01:53:25;5.70;99.90
13326;DHT22;6732;51.044;3.746;2022-12-08T01:55:56;5.70;99.90
13326;DHT22;6732;51.044;3.746;2022-12-08T01:58:29;5.70;99.90
13326;DHT22;6732;51.044;3.746;2022-12-08T02:00:57;5.70;99.90
13326;DHT22;6732;51.044;3.746;2022-12-08T02:03:27;5.70;99.90
13326;DHT22;6732;51.044;3.746;2022-12-08T02:05:54;5.70;99.90
13326;DHT22;6732;51.044;3.746;2022-12-08T02:08:20;5.70;99.90
13326;DHT22;6732;51.044;3.746;2022-12-08T02:10:50;5.70;99.90
13326;DHT22;6732;51.044;3.746;2022-12-08T02:13:18;5.60;99.90
13326;DHT22;6732;51.044;3.746;2022-12-08T02:16:05;5.60;99.90
13326;DHT22;6732;51.044;3.746;2022-12-08T02:18:56;5.50;99.90
13326;DHT22;6732;51.044;3.746;2022-12-08T02:35:42;5.40;99.90
13326;DHT22;6732;51.044;3.746;2022-12-08T02:43:28;5.40;99.90
13326;DHT22;6732;51.044;3.746;2022-12-08T02:46:03;5.40;99.90
13326;DHT22;6732;51.044;3.746;2022-12-08T02:48:32;5.40;99.90
13326;DHT22;6732;51.044;3.746;2022-12-08T02:50:58;5.40;99.90
13326;DHT22;6732;51.044;3.746;2022-12-08T02:53:27;5.40;99.90
13326;DHT22;6732;51.044;3.746;2022-12-08T03:07:04;5.50;99.90
13326;DHT22;6732;51.044;3.746;2022-12-08T03:09:36;5.50;99.90
13326;DHT22;6732;51.044;3.746;2022-12-08T03:14:54;5.50;99.90
13326;DHT22;6732;51.044;3.746;2022-12-08T03:17:23;5.50;99.90
13326;DHT22;6732;51.044;3.746;2022-12-08T03:19:51;5.40;99.90
13326;DHT22;6732;51.044;3.746;2022-12-08T03:22:21;5.40;99.90
13326;DHT22;6732;51.044;3.746;2022-12-08T03:24:48;5.50;99.90
13326;DHT22;6732;51.044;3.746;2022-12-08T03:27:18;5.50;99.90
13326;DHT22;6732;51.044;3.746;2022-12-08T03:29:46;5.50;99.90
13326;DHT22;6732;51.044;3.746;2022-12-08T03:32:31;5.50;99.90
13326;DHT22;6732;51.044;3.746;2022-12-08T03:35:02;5.50;99.90
13326;DHT22;6732;51.044;3.746;2022-12-08T03:37:28;5.50;99.90
13326;DHT22;6732;51.044;3.746;2022-12-08T03:39:55;5.50;99.90
13326;DHT22;6732;51.044;3.746;2022-12-08T03:42:21;5.50;99.90
13326;DHT22;6732;51.044;3.746;2022-12-08T03:44:47;5.50;99.90
13326;DHT22;6732;51.044;3.746;2022-12-08T03:47:13;5.40;99.90
13326;DHT22;6732;51.044;3.746;2022-12-08T03:49:39;5.50;99.90
13326;DHT22;6732;51.044;3.746;2022-12-08T03:52:05;5.50;99.90
13326;DHT22;6732;51.044;3.746;2022-12-08T03:54:31;5.40;99.90
13326;DHT22;6732;51.044;3.746;2022-12-08T03:56:57;5.40;99.90
13326;DHT22;6732;51.044;3.746;2022-12-08T03:59:22;5.40;99.90
13326;DHT22;6732;51.044;3.746;2022-12-08T04:01:48;5.50;99.90
13326;DHT22;6732;51.044;3.746;2022-12-08T04:04:14;5.50;99.90
13326;DHT22;6732;51.044;3.746;2022-12-08T04:06:40;5.50;99.90
13326;DHT22;6732;51.044;3.746;2022-12-08T04:09:06;5.50;99.90
13326;DHT22;6732;51.044;3.746;2022-12-08T04:11:32;5.50;99.90
13326;DHT22;6732;51.044;3.746;2022-12-08T04:13:58;5.40;99.90
13326;DHT22;6732;51.044;3.746;2022-12-08T04:16:24;5.50;99.90
13326;DHT22;6732;51.044;3.746;2022-12-08T04:18:53;5.50;99.90
13326;DHT22;6732;51.044;3.746;2022-12-08T04:21:19;5.50;99.90
13326;DHT22;6732;51.044;3.746;2022-12-08T04:23:45;5.40;99.90
13326;DHT22;6732;51.044;3.746;2022-12-08T04:26:12;5.40;99.90
13326;DHT22;6732;51.044;3.746;2022-12-08T04:28:38;5.40;99.90
13326;DHT22;6732;51.044;3.746;2022-12-08T04:31:04;5.40;99.90
13326;DHT22;6732;51.044;3.746;2022-12-08T04:33:30;5.40;99.90
13326;DHT22;6732;51.044;3.746;2022-12-08T04:35:56;5.40;99.90
13326;DHT22;6732;51.044;3.746;2022-12-08T04:38:22;5.30;99.90
13326;DHT22;6732;51.044;3.746;2022-12-08T04:40:48;5.30;99.90
13326;DHT22;6732;51.044;3.746;2022-12-08T04:43:14;5.30;99.90
13326;DHT22;6732;51.044;3.746;2022-12-08T04:45:41;5.30;99.90
13326;DHT22;6732;51.044;3.746;2022-12-08T04:48:08;5.30;99.90
13326;DHT22;6732;51.044;3.746;2022-12-08T04:50:34;5.30;99.90
13326;DHT22;6732;51.044;3.746;2022-12-08T04:53:00;5.30;99.90
13326;DHT22;6732;51.044;3.746;2022-12-08T04:55:26;5.30;99.90
13326;DHT22;6732;51.044;3.746;2022-12-08T04:57:52;5.30;99.90
13326;DHT22;6732;51.044;3.746;2022-12-08T05:00:18;5.30;99.90
13326;DHT22;6732;51.044;3.746;2022-12-08T05:02:44;5.30;99.90
13326;DHT22;6732;51.044;3.746;2022-12-08T05:05:10;5.30;99.90
13326;DHT22;6732;51.044;3.746;2022-12-08T05:07:36;5.30;99.90
13326;DHT22;6732;51.044;3.746;2022-12-08T05:10:02;5.20;99.90
13326;DHT22;6732;51.044;3.746;2022-12-08T05:12:28;5.20;99.90
13326;DHT22;6732;51.044;3.746;2022-12-08T05:14:54;5.20;99.90
13326;DHT22;6732;51.044;3.746;2022-12-08T05:17:21;5.20;99.90
13326;DHT22;6732;51.044;3.746;2022-12-08T05:19:46;5.20;99.90
13326;DHT22;6732;51.044;3.746;2022-12-08T05:22:12;5.20;99.90
13326;DHT22;6732;51.044;3.746;2022-12-08T05:24:38;5.20;99.90
13326;DHT22;6732;51.044;3.746;2022-12-08T05:27:04;5.20;99.90
13326;DHT22;6732;51.044;3.746;2022-12-08T05:29:30;5.20;99.90
13326;DHT22;6732;51.044;3.746;2022-12-08T05:31:56;5.20;99.90
13326;DHT22;6732;51.044;3.746;2022-12-08T05:34:21;5.20;99.90
13326;DHT22;6732;51.044;3.746;2022-12-08T05:36:47;5.20;99.90
13326;DHT22;6732;51.044;3.746;2022-12-08T05:39:14;5.20;99.90
13326;DHT22;6732;51.044;3.746;2022-12-08T05:41:40;5.20;99.90
13326;DHT22;6732;51.044;3.746;2022-12-08T05:44:06;5.20;99.90
13326;DHT22;6732;51.044;3.746;2022-12-08T05:46:32;5.20;99.90
13326;DHT22;6732;51.044;3.746;2022-12-08T05:48:59;5.20;99.90
13326;DHT22;6732;51.044;3.746;2022-12-08T05:51:26;5.20;99.90
13326;DHT22;6732;51.044;3.746;2022-12-08T05:53:55;5.20;99.90
13326;DHT22;6732;51.044;3.746;2022-12-08T05:56:22;5.20;99.90
13326;DHT22;6732;51.044;3.746;2022-12-08T05:58:48;5.20;99.90
13326;DHT22;6732;51.044;3.746;2022-12-08T06:01:22;5.20;99.90
13326;DHT22;6732;51.044;3.746;2022-12-08T06:03:49;5.20;99.90
13326;DHT22;6732;51.044;3.746;2022-12-08T06:06:15;5.20;99.90
13326;DHT22;6732;51.044;3.746;2022-12-08T06:08:40;5.20;99.90
13326;DHT22;6732;51.044;3.746;2022-12-08T06:11:07;5.20;99.90
13326;DHT22;6732;51.044;3.746;2022-12-08T06:13:33;5.20;99.90
13326;DHT22;6732;51.044;3.746;2022-12-08T06:16:06;5.20;99.90
13326;DHT22;6732;51.044;3.746;2022-12-08T06:18:32;5.20;99.90
13326;DHT22;6732;51.044;3.746;2022-12-08T06:21:03;5.20;99.90
13326;DHT22;6732;51.044;3.746;2022-12-08T06:23:29;5.20;99.90
13326;DHT22;6732;51.044;3.746;2022-12-08T06:26:00;5.20;99.90
13326;DHT22;6732;51.044;3.746;2022-12-08T06:28:27;5.20;99.90
13326;DHT22;6732;51.044;3.746;2022-12-08T06:30:53;5.20;99.90
13326;DHT22;6732;51.044;3.746;2022-12-08T06:33:19;5.10;99.90
13326;DHT22;6732;51.044;3.746;2022-12-08T06:35:45;5.10;99.90
13326;DHT22;6732;51.044;3.746;2022-12-08T06:38:10;5.20;99.90
13326;DHT22;6732;51.044;3.746;2022-12-08T06:40:36;5.20;99.90
13326;DHT22;6732;51.044;3.746;2022-12-08T06:43:02;5.20;99.90
13326;DHT22;6732;51.044;3.746;2022-12-08T06:45:28;5.20;99.90
13326;DHT22;6732;51.044;3.746;2022-12-08T06:47:54;5.30;99.90
13326;DHT22;6732;51.044;3.746;2022-12-08T06:50:20;5.30;99.90
13326;DHT22;6732;51.044;3.746;2022-12-08T06:52:46;5.30;99.90
13326;DHT22;6732;51.044;3.746;2022-12-08T06:55:12;5.30;99.90
13326;DHT22;6732;51.044;3.746;2022-12-08T06:57:38;5.30;99.90
13326;DHT22;6732;51.044;3.746;2022-12-08T07:00:05;5.30;99.90
13326;DHT22;6732;51.044;3.746;2022-12-08T07:02:31;5.30;99.90
13326;DHT22;6732;51.044;3.746;2022-12-08T07:04:58;5.30;99.90
13326;DHT22;6732;51.044;3.746;2022-12-08T07:07:24;5.30;99.90
13326;DHT22;6732;51.044;3.746;2022-12-08T07:09:50;5.30;99.90
13326;DHT22;6732;51.044;3.746;2022-12-08T07:12:15;5.30;99.90
13326;DHT22;6732;51.044;3.746;2022-12-08T07:14:41;5.30;99.90
13326;DHT22;6732;51.044;3.746;2022-12-08T07:17:07;5.30;99.90
13326;DHT22;6732;51.044;3.746;2022-12-08T07:19:33;5.30;99.90
13326;DHT22;6732;51.044;3.746;2022-12-08T07:21:58;5.30;99.90
13326;DHT22;6732;51.044;3.746;2022-12-08T07:24:24;5.30;99.90
13326;DHT22;6732;51.044;3.746;2022-12-08T07:26:50;5.30;99.90
13326;DHT22;6732;51.044;3.746;2022-12-08T07:29:16;5.30;99.90
13326;DHT22;6732;51.044;3.746;2022-12-08T07:31:42;5.30;99.90
13326;DHT22;6732;51.044;3.746;2022-12-08T07:34:10;5.30;99.90
13326;DHT22;6732;51.044;3.746;2022-12-08T07:36:36;5.30;99.90
13326;DHT22;6732;51.044;3.746;2022-12-08T07:39:03;5.30;99.90
13326;DHT22;6732;51.044;3.746;2022-12-08T07:41:29;5.40;99.90
13326;DHT22;6732;51.044;3.746;2022-12-08T07:43:55;5.30;99.90
13326;DHT22;6732;51.044;3.746;2022-12-08T07:46:23;5.30;99.90
13326;DHT22;6732;51.044;3.746;2022-12-08T07:48:53;5.30;99.90
13326;DHT22;6732;51.044;3.746;2022-12-08T07:51:19;5.40;99.90
13326;DHT22;6732;51.044;3.746;2022-12-08T07:53:47;5.30;99.90
13326;DHT22;6732;51.044;3.746;2022-12-08T07:56:13;5.40;99.90
13326;DHT22;6732;51.044;3.746;2022-12-08T07:58:40;5.40;99.90
13326;DHT22;6732;51.044;3.746;2022-12-08T08:01:16;5.40;99.90
13326;DHT22;6732;51.044;3.746;2022-12-08T08:03:42;5.40;99.90
13326;DHT22;6732;51.044;3.746;2022-12-08T08:06:08;5.40;99.90
13326;DHT22;6732;51.044;3.746;2022-12-08T08:08:34;5.40;99.90
13326;DHT22;6732;51.044;3.746;2022-12-08T08:11:00;5.40;99.90
13326;DHT22;6732;51.044;3.746;2022-12-08T08:13:26;5.40;99.90
13326;DHT22;6732;51.044;3.746;2022-12-08T08:15:52;5.50;99.90
13326;DHT22;6732;51.044;3.746;2022-12-08T08:18:18;5.50;99.90
13326;DHT22;6732;51.044;3.746;2022-12-08T08:20:44;5.50;99.90
13326;DHT22;6732;51.044;3.746;2022-12-08T08:23:10;5.50;99.90
13326;DHT22;6732;51.044;3.746;2022-12-08T08:25:35;5.50;99.90
13326;DHT22;6732;51.044;3.746;2022-12-08T08:28:01;5.50;99.90
13326;DHT22;6732;51.044;3.746;2022-12-08T08:30:27;5.50;99.90
13326;DHT22;6732;51.044;3.746;2022-12-08T08:32:53;5.50;99.90
13326;DHT22;6732;51.044;3.746;2022-12-08T08:35:19;5.50;99.90
13326;DHT22;6732;51.044;3.746;2022-12-08T08:37:45;5.50;99.90
13326;DHT22;6732;51.044;3.746;2022-12-08T08:40:11;5.50;99.90
13326;DHT22;6732;51.044;3.746;2022-12-08T08:42:37;5.40;99.90
13326;DHT22;6732;51.044;3.746;2022-12-08T08:45:03;5.40;99.90
13326;DHT22;6732;51.044;3.746;2022-12-08T08:47:29;5.40;99.90
13326;DHT22;6732;51.044;3.746;2022-12-08T08:49:55;5.40;99.90
13326;DHT22;6732;51.044;3.746;2022-12-08T08:52:21;5.40;99.90
13326;DHT22;6732;51.044;3.746;2022-12-08T08:54:46;5.30;99.90
13326;DHT22;6732;51.044;3.746;2022-12-08T08:57:12;5.30;99.90
13326;DHT22;6732;51.044;3.746;2022-12-08T08:59:38;5.30;99.90
13326;DHT22;6732;51.044;3.746;2022-12-08T09:02:04;5.40;99.90
13326;DHT22;6732;51.044;3.746;2022-12-08T09:04:30;5.30;99.90
13326;DHT22;6732;51.044;3.746;2022-12-08T09:06:56;5.30;99.90
13326;DHT22;6732;51.044;3.746;2022-12-08T09:09:22;5.30;99.90
13326;DHT22;6732;51.044;3.746;2022-12-08T09:11:48;5.30;99.90
13326;DHT22;6732;51.044;3.746;2022-12-08T09:14:14;5.30;99.90
13326;DHT22;6732;51.044;3.746;2022-12-08T09:16:40;5.30;99.90
13326;DHT22;6732;51.044;3.746;2022-12-08T09:19:07;5.30;99.90
13326;DHT22;6732;51.044;3.746;2022-12-08T09:21:33;5.30;99.90
13326;DHT22;6732;51.044;3.746;2022-12-08T09:23:59;5.30;99.90
13326;DHT22;6732;51.044;3.746;2022-12-08T09:26:26;5.30;99.90
13326;DHT22;6732;51.044;3.746;2022-12-08T09:28:54;5.30;99.90
13326;DHT22;6732;51.044;3.746;2022-12-08T09:31:22;5.30;99.90
13326;DHT22;6732;51.044;3.746;2022-12-08T09:33:48;5.30;99.90
13326;DHT22;6732;51.044;3.746;2022-12-08T09:36:16;5.30;99.90
13326;DHT22;6732;51.044;3.746;2022-12-08T09:38:43;5.40;99.90
13326;DHT22;6732;51.044;3.746;2022-12-08T09:44:16;5.40;99.90
13326;DHT22;6732;51.044;3.746;2022-12-08T09:46:47;5.40;99.90
13326;DHT22;6732;51.044;3.746;2022-12-08T09:51:59;5.40;99.90
13326;DHT22;6732;51.044;3.746;2022-12-08T09:54:33;5.40;99.90
13326;DHT22;6732;51.044;3.746;2022-12-08T09:57:04;5.40;99.90
13326;DHT22;6732;51.044;3.746;2022-12-08T09:59:33;5.40;99.90
13326;DHT22;6732;51.044;3.746;2022-12-08T10:02:01;5.40;99.90
13326;DHT22;6732;51.044;3.746;2022-12-08T10:04:30;5.40;99.90
13326;DHT22;6732;51.044;3.746;2022-12-08T10:07:04;5.40;99.90
13326;DHT22;6732;51.044;3.746;2022-12-08T10:09:38;5.40;99.90
13326;DHT22;6732;51.044;3.746;2022-12-08T10:15:00;5.40;99.90
13326;DHT22;6732;51.044;3.746;2022-12-08T10:17:35;5.50;99.90
13326;DHT22;6732;51.044;3.746;2022-12-08T10:20:18;5.50;99.90
13326;DHT22;6732;51.044;3.746;2022-12-08T10:22:47;5.50;99.90
13326;DHT22;6732;51.044;3.746;2022-12-08T10:25:19;5.50;99.90
13326;DHT22;6732;51.044;3.746;2022-12-08T10:27:52;5.50;99.90
13326;DHT22;6732;51.044;3.746;2022-12-08T10:30:20;5.50;99.90
13326;DHT22;6732;51.044;3.746;2022-12-08T10:32:51;5.50;99.90
13326;DHT22;6732;51.044;3.746;2022-12-08T10:35:19;5.60;99.90
13326;DHT22;6732;51.044;3.746;2022-12-08T10:40:22;5.60;99.90
13326;DHT22;6732;51.044;3.746;2022-12-08T10:42:51;5.60;99.90
13326;DHT22;6732;51.044;3.746;2022-12-08T10:45:29;5.60;99.90
13326;DHT22;6732;51.044;3.746;2022-12-08T10:48:04;5.60;99.90
13326;DHT22;6732;51.044;3.746;2022-12-08T10:50:40;5.50;99.90
13326;DHT22;6732;51.044;3.746;2022-12-08T10:58:26;5.60;99.90
13326;DHT22;6732;51.044;3.746;2022-12-08T11:00:54;5.50;99.90
13326;DHT22;6732;51.044;3.746;2022-12-08T11:03:26;5.60;99.90
13326;DHT22;6732;51.044;3.746;2022-12-08T11:05:55;5.60;99.90
13326;DHT22;6732;51.044;3.746;2022-12-08T11:08:21;5.60;99.90
13326;DHT22;6732;51.044;3.746;2022-12-08T11:10:47;5.60;99.90
13326;DHT22;6732;51.044;3.746;2022-12-08T11:13:26;5.70;99.90
13326;DHT22;6732;51.044;3.746;2022-12-08T11:15:55;5.70;99.90
13326;DHT22;6732;51.044;3.746;2022-12-08T11:18:27;5.70;99.90
13326;DHT22;6732;51.044;3.746;2022-12-08T11:21:05;5.70;99.90
13326;DHT22;6732;51.044;3.746;2022-12-08T11:23:35;5.80;99.90
13326;DHT22;6732;51.044;3.746;2022-12-08T11:26:11;5.80;99.90
13326;DHT22;6732;51.044;3.746;2022-12-08T11:28:39;5.80;99.90
13326;DHT22;6732;51.044;3.746;2022-12-08T11:31:28;5.80;99.90
13326;DHT22;6732;51.044;3.746;2022-12-08T11:33:55;5.90;99.90
13326;DHT22;6732;51.044;3.746;2022-12-08T11:36:22;5.90;99.90
13326;DHT22;6732;51.044;3.746;2022-12-08T11:38:55;5.90;99.90
13326;DHT22;6732;51.044;3.746;2022-12-08T11:41:29;5.90;99.90
13326;DHT22;6732;51.044;3.746;2022-12-08T11:46:45;5.90;99.90
13326;DHT22;6732;51.044;3.746;2022-12-08T11:49:13;6.00;99.90
13326;DHT22;6732;51.044;3.746;2022-12-08T11:54:46;6.00;99.90
13326;DHT22;6732;51.044;3.746;2022-12-08T11:57:13;6.00;99.90
13326;DHT22;6732;51.044;3.746;2022-12-08T11:59:49;6.00;99.90
13326;DHT22;6732;51.044;3.746;2022-12-08T12:02:31;6.00;99.90
13326;DHT22;6732;51.044;3.746;2022-12-08T12:18:58;6.20;99.90
13326;DHT22;6732;51.044;3.746;2022-12-08T12:21:33;6.20;99.90
13326;DHT22;6732;51.044;3.746;2022-12-08T12:24:23;6.20;99.90
13326;DHT22;6732;51.044;3.746;2022-12-08T12:29:21;6.20;99.90
13326;DHT22;6732;51.044;3.746;2022-12-08T12:32:01;6.30;99.90
13326;DHT22;6732;51.044;3.746;2022-12-08T12:34:32;6.30;99.90
13326;DHT22;6732;51.044;3.746;2022-12-08T12:37:12;6.20;99.90
13326;DHT22;6732;51.044;3.746;2022-12-08T12:42:47;6.30;99.90
13326;DHT22;6732;51.044;3.746;2022-12-08T12:45:34;6.30;99.90
13326;DHT22;6732;51.044;3.746;2022-12-08T12:50:48;6.30;99.90
13326;DHT22;6732;51.044;3.746;2022-12-08T12:55:58;6.30;99.90
13326;DHT22;6732;51.044;3.746;2022-12-08T13:04:00;6.20;99.90
13326;DHT22;6732;51.044;3.746;2022-12-08T13:06:43;6.20;99.90
13326;DHT22;6732;51.044;3.746;2022-12-08T13:09:20;6.10;99.90
13326;DHT22;6732;51.044;3.746;2022-12-08T13:11:57;6.00;99.90
13326;DHT22;6732;51.044;3.746;2022-12-08T13:14:32;6.00;99.90
13326;DHT22;6732;51.044;3.746;2022-12-08T13:17:01;6.00;99.90
13326;DHT22;6732;51.044;3.746;2022-12-08T13:19:31;5.90;99.90
13326;DHT22;6732;51.044;3.746;2022-12-08T13:21:57;5.90;99.90
13326;DHT22;6732;51.044;3.746;2022-12-08T13:27:26;5.90;99.90
13326;DHT22;6732;51.044;3.746;2022-12-08T13:29:37;5.90;99.90
13326;DHT22;6732;51.044;3.746;2022-12-08T13:32:50;5.90;99.90
13326;DHT22;6732;51.044;3.746;2022-12-08T13:34:54;5.90;99.90
13326;DHT22;6732;51.044;3.746;2022-12-08T13:37:44;5.90;99.90
13326;DHT22;6732;51.044;3.746;2022-12-08T13:40:23;5.90;99.90
13326;DHT22;6732;51.044;3.746;2022-12-08T13:43:27;5.80;99.90
13326;DHT22;6732;51.044;3.746;2022-12-08T13:45:56;5.80;99.90
13326;DHT22;6732;51.044;3.746;2022-12-08T13:48:31;5.70;99.90
13326;DHT22;6732;51.044;3.746;2022-12-08T13:51:17;5.70;99.90
13326;DHT22;6732;51.044;3.746;2022-12-08T13:53:58;5.70;99.90
13326;DHT22;6732;51.044;3.746;2022-12-08T13:56:26;5.60;99.90
13326;DHT22;6732;51.044;3.746;2022-12-08T14:01:42;5.60;99.90
13326;DHT22;6732;51.044;3.746;2022-12-08T14:04:15;5.50;99.90
13326;DHT22;6732;51.044;3.746;2022-12-08T14:06:50;5.50;99.90
13326;DHT22;6732;51.044;3.746;2022-12-08T14:09:20;5.50;99.90
13326;DHT22;6732;51.044;3.746;2022-12-08T14:12:08;5.50;99.90
13326;DHT22;6732;51.044;3.746;2022-12-08T14:14:41;5.50;99.90
13326;DHT22;6732;51.044;3.746;2022-12-08T14:17:15;5.50;99.90
13326;DHT22;6732;51.044;3.746;2022-12-08T14:19:44;5.50;99.90
13326;DHT22;6732;51.044;3.746;2022-12-08T14:22:17;5.50;99.90
13326;DHT22;6732;51.044;3.746;2022-12-08T14:24:46;5.50;99.90
13326;DHT22;6732;51.044;3.746;2022-12-08T14:27:21;5.50;99.90
13326;DHT22;6732;51.044;3.746;2022-12-08T14:29:50;5.50;99.90
13326;DHT22;6732;51.044;3.746;2022-12-08T14:32:37;5.50;99.90
13326;DHT22;6732;51.044;3.746;2022-12-08T14:37:37;5.50;99.90
13326;DHT22;6732;51.044;3.746;2022-12-08T14:40:19;5.50;99.90
13326;DHT22;6732;51.044;3.746;2022-12-08T14:42:48;5.50;99.90
13326;DHT22;6732;51.044;3.746;2022-12-08T14:45:16;5.50;99.90
13326;DHT22;6732;51.044;3.746;2022-12-08T14:47:43;5.50;99.90
13326;DHT22;6732;51.044;3.746;2022-12-08T14:50:39;5.50;99.90
13326;DHT22;6732;51.044;3.746;2022-12-08T14:53:13;5.50;99.90
13326;DHT22;6732;51.044;3.746;2022-12-08T14:55:42;5.50;99.90
13326;DHT22;6732;51.044;3.746;2022-12-08T14:58:26;5.50;99.90
13326;DHT22;6732;51.044;3.746;2022-12-08T15:00:55;5.40;99.90
13326;DHT22;6732;51.044;3.746;2022-12-08T15:03:25;5.40;99.90
13326;DHT22;6732;51.044;3.746;2022-12-08T15:05:55;5.40;99.90
13326;DHT22;6732;51.044;3.746;2022-12-08T15:08:22;5.40;99.90
13326;DHT22;6732;51.044;3.746;2022-12-08T15:11:11;5.30;99.90
13326;DHT22;6732;51.044;3.746;2022-12-08T15:13:44;5.30;99.90
13326;DHT22;6732;51.044;3.746;2022-12-08T15:21:53;5.20;99.90
13326;DHT22;6732;51.044;3.746;2022-12-08T15:24:23;5.20;99.90
13326;DHT22;6732;51.044;3.746;2022-12-08T15:26:50;5.20;99.90
13326;DHT22;6732;51.044;3.746;2022-12-08T15:29:27;5.20;99.90
13326;DHT22;6732;51.044;3.746;2022-12-08T15:31:59;5.10;99.90
13326;DHT22;6732;51.044;3.746;2022-12-08T15:34:26;5.10;99.90
13326;DHT22;6732;51.044;3.746;2022-12-08T15:36:53;5.00;99.90
13326;DHT22;6732;51.044;3.746;2022-12-08T15:41:56;5.00;99.90
13326;DHT22;6732;51.044;3.746;2022-12-08T15:44:22;5.00;99.90
13326;DHT22;6732;51.044;3.746;2022-12-08T15:46:48;5.00;99.90
13326;DHT22;6732;51.044;3.746;2022-12-08T15:49:22;4.90;99.90
13326;DHT22;6732;51.044;3.746;2022-12-08T15:51:49;4.90;99.90
13326;DHT22;6732;51.044;3.746;2022-12-08T15:54:15;4.90;99.90
13326;DHT22;6732;51.044;3.746;2022-12-08T15:59:43;4.90;99.90
13326;DHT22;6732;51.044;3.746;2022-12-08T16:02:11;4.80;99.90
13326;DHT22;6732;51.044;3.746;2022-12-08T16:04:37;4.80;99.90
13326;DHT22;6732;51.044;3.746;2022-12-08T16:07:05;4.80;99.90
13326;DHT22;6732;51.044;3.746;2022-12-08T16:09:36;4.80;99.90
13326;DHT22;6732;51.044;3.746;2022-12-08T16:12:14;4.80;99.90
13326;DHT22;6732;51.044;3.746;2022-12-08T16:14:58;4.80;99.90
13326;DHT22;6732;51.044;3.746;2022-12-08T16:17:25;4.80;99.90
13326;DHT22;6732;51.044;3.746;2022-12-08T16:19:51;4.70;99.90
13326;DHT22;6732;51.044;3.746;2022-12-08T16:22:19;4.70;99.90
13326;DHT22;6732;51.044;3.746;2022-12-08T16:24:45;4.70;99.90
13326;DHT22;6732;51.044;3.746;2022-12-08T16:27:23;4.70;99.90
13326;DHT22;6732;51.044;3.746;2022-12-08T16:29:50;4.70;99.90
13326;DHT22;6732;51.044;3.746;2022-12-08T16:32:16;4.60;99.90
13326;DHT22;6732;51.044;3.746;2022-12-08T16:34:42;4.60;99.90
13326;DHT22;6732;51.044;3.746;2022-12-08T16:37:20;4.60;99.90
13326;DHT22;6732;51.044;3.746;2022-12-08T16:39:48;4.60;99.90
13326;DHT22;6732;51.044;3.746;2022-12-08T16:42:25;4.60;99.90
13326;DHT22;6732;51.044;3.746;2022-12-08T16:47:49;4.70;99.90
13326;DHT22;6732;51.044;3.746;2022-12-08T16:50:28;4.80;99.90
13326;DHT22;6732;51.044;3.746;2022-12-08T16:53:05;4.80;99.90
13326;DHT22;6732;51.044;3.746;2022-12-08T16:55:34;4.90;99.90
13326;DHT22;6732;51.044;3.746;2022-12-08T16:58:00;4.90;99.90
13326;DHT22;6732;51.044;3.746;2022-12-08T17:00:28;4.90;99.90
13326;DHT22;6732;51.044;3.746;2022-12-08T17:02:55;4.90;99.90
13326;DHT22;6732;51.044;3.746;2022-12-08T17:05:23;5.00;99.90
13326;DHT22;6732;51.044;3.746;2022-12-08T17:07:50;5.00;99.90
13326;DHT22;6732;51.044;3.746;2022-12-08T17:10:19;5.00;99.90
13326;DHT22;6732;51.044;3.746;2022-12-08T17:12:45;5.00;99.90
13326;DHT22;6732;51.044;3.746;2022-12-08T17:15:15;5.00;99.90
13326;DHT22;6732;51.044;3.746;2022-12-08T17:17:41;5.00;99.90
13326;DHT22;6732;51.044;3.746;2022-12-08T17:20:12;5.00;99.90
13326;DHT22;6732;51.044;3.746;2022-12-08T17:22:39;5.00;99.90
13326;DHT22;6732;51.044;3.746;2022-12-08T17:25:06;5.00;99.90
13326;DHT22;6732;51.044;3.746;2022-12-08T17:27:32;5.00;99.90
13326;DHT22;6732;51.044;3.746;2022-12-08T17:29:58;5.00;99.90
13326;DHT22;6732;51.044;3.746;2022-12-08T17:32:24;5.00;99.90
13326;DHT22;6732;51.044;3.746;2022-12-08T17:34:50;5.00;99.90
13326;DHT22;6732;51.044;3.746;2022-12-08T17:37:16;5.00;99.90
13326;DHT22;6732;51.044;3.746;2022-12-08T17:39:42;4.90;99.90
13326;DHT22;6732;51.044;3.746;2022-12-08T17:42:08;5.00;99.90
13326;DHT22;6732;51.044;3.746;2022-12-08T17:44:34;5.00;99.90
13326;DHT22;6732;51.044;3.746;2022-12-08T17:47:01;5.00;99.90
13326;DHT22;6732;51.044;3.746;2022-12-08T17:49:28;5.00;99.90
13326;DHT22;6732;51.044;3.746;2022-12-08T17:51:59;5.00;99.90
13326;DHT22;6732;51.044;3.746;2022-12-08T17:54:26;4.90;99.90
13326;DHT22;6732;51.044;3.746;2022-12-08T17:56:53;4.90;99.90
13326;DHT22;6732;51.044;3.746;2022-12-08T17:59:19;4.90;99.90
13326;DHT22;6732;51.044;3.746;2022-12-08T18:01:45;4.90;99.90
13326;DHT22;6732;51.044;3.746;2022-12-08T18:04:12;4.90;99.90